sensor_id;sensor_type;location;lat;lon;timestamp;P1;durP1;ratioP1;P2;durP2;ratioP2
68976;SDS011;56029;52.568;13.588;2023-06-24T00:01:24;19.83;;;11.18;;
68976;SDS011;56029;52.568;13.588;2023-06-24T00:03:52;19.75;;;11.25;;
68976;SDS011;56029;52.568;13.588;2023-06-24T00:06:19;19.13;;;11.23;;
68976;SDS011;56029;52.568;13.588;2023-06-24T00:08:45;19.92;;;11.70;;
68976;SDS011;56029;52.568;13.588;2023-06-24T00:11:11;17.85;;;11.40;;
68976;SDS011;56029;52.568;13.588;2023-06-24T00:13:38;19.73;;;11.32;;
68976;SDS011;56029;52.568;13.588;2023-06-24T00:16:05;18.88;;;12.07;;
68976;SDS011;56029;52.568;13.588;2023-06-24T00:18:32;21.30;;;12.10;;
68976;SDS011;56029;52.568;13.588;2023-06-24T00:20:58;20.42;;;12.50;;
68976;SDS011;56029;52.568;13.588;2023-06-24T00:23:23;20.87;;;12.43;;
68976;SDS011;56029;52.568;13.588;2023-06-24T00:25:50;18.90;;;12.25;;
68976;SDS011;56029;52.568;13.588;2023-06-24T00:28:19;22.88;;;12.95;;
68976;SDS011;56029;52.568;13.588;2023-06-24T00:30:46;23.60;;;13.38;;
68976;SDS011;56029;52.568;13.588;2023-06-24T00:33:12;24.52;;;14.32;;
68976;SDS011;56029;52.568;13.588;2023-06-24T00:35:42;24.60;;;14.50;;
68976;SDS011;56029;52.568;13.588;2023-06-24T00:38:08;26.30;;;15.10;;
68976;SDS011;56029;52.568;13.588;2023-06-24T00:40:34;29.52;;;16.73;;
68976;SDS011;56029;52.568;13.588;2023-06-24T00:43:00;30.98;;;17.60;;
68976;SDS011;56029;52.568;13.588;2023-06-24T00:45:27;31.40;;;17.87;;
68976;SDS011;56029;52.568;13.588;2023-06-24T00:47:55;30.85;;;17.30;;
68976;SDS011;56029;52.568;13.588;2023-06-24T00:50:21;31.55;;;18.17;;
68976;SDS011;56029;52.568;13.588;2023-06-24T00:52:47;32.50;;;18.10;;
68976;SDS011;56029;52.568;13.588;2023-06-24T00:55:15;33.88;;;18.70;;
68976;SDS011;56029;52.568;13.588;2023-06-24T00:57:45;29.23;;;17.83;;
68976;SDS011;56029;52.568;13.588;2023-06-24T01:00:16;30.98;;;18.35;;
68976;SDS011;56029;52.568;13.588;2023-06-24T01:02:49;35.30;;;18.83;;
68976;SDS011;56029;52.568;13.588;2023-06-24T01:05:15;31.02;;;18.08;;
68976;SDS011;56029;52.568;13.588;2023-06-24T01:07:41;33.00;;;18.73;;
68976;SDS011;56029;52.568;13.588;2023-06-24T01:10:08;32.38;;;18.80;;
68976;SDS011;56029;52.568;13.588;2023-06-24T01:12:35;36.28;;;19.83;;
68976;SDS011;56029;52.568;13.588;2023-06-24T01:15:09;35.63;;;19.97;;
68976;SDS011;56029;52.568;13.588;2023-06-24T01:34:01;34.45;;;19.17;;
68976;SDS011;56029;52.568;13.588;2023-06-24T01:36:33;34.70;;;18.52;;
68976;SDS011;56029;52.568;13.588;2023-06-24T01:39:02;31.13;;;17.50;;
68976;SDS011;56029;52.568;13.588;2023-06-24T01:41:31;32.60;;;17.97;;
68976;SDS011;56029;52.568;13.588;2023-06-24T01:44:01;33.78;;;18.33;;
68976;SDS011;56029;52.568;13.588;2023-06-24T01:46:29;31.08;;;17.67;;
68976;SDS011;56029;52.568;13.588;2023-06-24T01:48:55;30.20;;;18.02;;
68976;SDS011;56029;52.568;13.588;2023-06-24T01:51:26;30.42;;;17.88;;
68976;SDS011;56029;52.568;13.588;2023-06-24T01:53:54;29.50;;;17.53;;
68976;SDS011;56029;52.568;13.588;2023-06-24T01:56:26;29.85;;;18.30;;
68976;SDS011;56029;52.568;13.588;2023-06-24T01:58:54;32.90;;;18.20;;
68976;SDS011;56029;52.568;13.588;2023-06-24T02:01:22;31.52;;;18.85;;
68976;SDS011;56029;52.568;13.588;2023-06-24T02:03:49;31.83;;;17.85;;
68976;SDS011;56029;52.568;13.588;2023-06-24T02:06:17;33.03;;;17.80;;
68976;SDS011;56029;52.568;13.588;2023-06-24T02:08:44;36.25;;;19.05;;
68976;SDS011;56029;52.568;13.588;2023-06-24T02:11:12;31.13;;;18.02;;
68976;SDS011;56029;52.568;13.588;2023-06-24T02:13:39;31.98;;;18.02;;
68976;SDS011;56029;52.568;13.588;2023-06-24T02:16:07;30.52;;;18.15;;
68976;SDS011;56029;52.568;13.588;2023-06-24T02:18:35;28.60;;;16.80;;
68976;SDS011;56029;52.568;13.588;2023-06-24T02:21:02;29.55;;;17.20;;
68976;SDS011;56029;52.568;13.588;2023-06-24T02:23:29;29.17;;;17.75;;
68976;SDS011;56029;52.568;13.588;2023-06-24T02:25:55;28.00;;;16.33;;
68976;SDS011;56029;52.568;13.588;2023-06-24T02:28:22;26.58;;;15.65;;
68976;SDS011;56029;52.568;13.588;2023-06-24T02:30:49;29.20;;;16.43;;
68976;SDS011;56029;52.568;13.588;2023-06-24T02:33:15;27.23;;;16.02;;
68976;SDS011;56029;52.568;13.588;2023-06-24T02:35:41;27.13;;;16.30;;
68976;SDS011;56029;52.568;13.588;2023-06-24T02:38:07;27.33;;;16.47;;
68976;SDS011;56029;52.568;13.588;2023-06-24T02:40:33;27.77;;;16.42;;
68976;SDS011;56029;52.568;13.588;2023-06-24T02:43:00;32.15;;;17.52;;
68976;SDS011;56029;52.568;13.588;2023-06-24T02:45:26;29.40;;;16.87;;
68976;SDS011;56029;52.568;13.588;2023-06-24T02:47:52;28.45;;;17.60;;
68976;SDS011;56029;52.568;13.588;2023-06-24T02:50:19;32.25;;;18.60;;
68976;SDS011;56029;52.568;13.588;2023-06-24T02:52:46;29.38;;;16.23;;
68976;SDS011;56029;52.568;13.588;2023-06-24T02:55:13;28.80;;;17.23;;
68976;SDS011;56029;52.568;13.588;2023-06-24T02:57:40;32.10;;;17.60;;
68976;SDS011;56029;52.568;13.588;2023-06-24T03:00:07;29.13;;;17.30;;
68976;SDS011;56029;52.568;13.588;2023-06-24T03:02:40;28.58;;;17.08;;
68976;SDS011;56029;52.568;13.588;2023-06-24T03:05:08;29.02;;;16.42;;
68976;SDS011;56029;52.568;13.588;2023-06-24T03:07:34;32.83;;;17.60;;
68976;SDS011;56029;52.568;13.588;2023-06-24T03:10:02;31.13;;;17.83;;
68976;SDS011;56029;52.568;13.588;2023-06-24T03:12:28;29.20;;;16.90;;
68976;SDS011;56029;52.568;13.588;2023-06-24T03:14:54;29.73;;;17.15;;
68976;SDS011;56029;52.568;13.588;2023-06-24T03:17:19;28.00;;;16.23;;
68976;SDS011;56029;52.568;13.588;2023-06-24T03:19:45;28.05;;;16.92;;
68976;SDS011;56029;52.568;13.588;2023-06-24T03:22:11;26.60;;;16.23;;
68976;SDS011;56029;52.568;13.588;2023-06-24T03:24:36;29.05;;;16.08;;
68976;SDS011;56029;52.568;13.588;2023-06-24T03:27:02;28.77;;;15.47;;
68976;SDS011;56029;52.568;13.588;2023-06-24T03:29:28;24.58;;;14.60;;
68976;SDS011;56029;52.568;13.588;2023-06-24T03:31:54;24.93;;;15.47;;
68976;SDS011;56029;52.568;13.588;2023-06-24T03:34:19;24.15;;;15.18;;
68976;SDS011;56029;52.568;13.588;2023-06-24T03:36:45;23.93;;;14.60;;
68976;SDS011;56029;52.568;13.588;2023-06-24T03:39:10;28.03;;;15.40;;
68976;SDS011;56029;52.568;13.588;2023-06-24T03:41:36;26.23;;;15.70;;
68976;SDS011;56029;52.568;13.588;2023-06-24T03:44:02;26.02;;;16.27;;
68976;SDS011;56029;52.568;13.588;2023-06-24T03:46:27;24.83;;;14.90;;
68976;SDS011;56029;52.568;13.588;2023-06-24T03:48:58;27.73;;;15.90;;
68976;SDS011;56029;52.568;13.588;2023-06-24T03:51:24;25.93;;;14.63;;
68976;SDS011;56029;52.568;13.588;2023-06-24T03:53:49;27.20;;;15.00;;
68976;SDS011;56029;52.568;13.588;2023-06-24T03:56:16;25.70;;;14.63;;
68976;SDS011;56029;52.568;13.588;2023-06-24T03:58:42;23.33;;;14.80;;
68976;SDS011;56029;52.568;13.588;2023-06-24T04:01:07;26.15;;;15.18;;
68976;SDS011;56029;52.568;13.588;2023-06-24T04:03:34;24.27;;;14.32;;
68976;SDS011;56029;52.568;13.588;2023-06-24T04:06:00;22.30;;;13.43;;
68976;SDS011;56029;52.568;13.588;2023-06-24T04:08:29;21.90;;;13.73;;
68976;SDS011;56029;52.568;13.588;2023-06-24T04:10:55;22.17;;;12.60;;
68976;SDS011;56029;52.568;13.588;2023-06-24T04:13:22;23.50;;;13.05;;
68976;SDS011;56029;52.568;13.588;2023-06-24T04:15:47;18.30;;;11.20;;
68976;SDS011;56029;52.568;13.588;2023-06-24T04:18:13;18.42;;;10.73;;
68976;SDS011;56029;52.568;13.588;2023-06-24T04:20:39;17.42;;;11.18;;
68976;SDS011;56029;52.568;13.588;2023-06-24T04:23:05;17.47;;;10.50;;
68976;SDS011;56029;52.568;13.588;2023-06-24T04:25:35;18.33;;;10.55;;
68976;SDS011;56029;52.568;13.588;2023-06-24T04:28:02;18.20;;;11.27;;
68976;SDS011;56029;52.568;13.588;2023-06-24T04:30:30;20.88;;;11.50;;
68976;SDS011;56029;52.568;13.588;2023-06-24T04:32:56;20.77;;;12.82;;
68976;SDS011;56029;52.568;13.588;2023-06-24T04:35:21;21.47;;;11.63;;
68976;SDS011;56029;52.568;13.588;2023-06-24T04:37:47;21.20;;;13.13;;
68976;SDS011;56029;52.568;13.588;2023-06-24T04:40:15;21.83;;;12.63;;
68976;SDS011;56029;52.568;13.588;2023-06-24T04:42:42;20.90;;;12.35;;
68976;SDS011;56029;52.568;13.588;2023-06-24T04:45:08;21.40;;;11.67;;
68976;SDS011;56029;52.568;13.588;2023-06-24T04:47:34;19.58;;;11.45;;
68976;SDS011;56029;52.568;13.588;2023-06-24T04:49:59;19.10;;;11.37;;
68976;SDS011;56029;52.568;13.588;2023-06-24T04:52:25;18.40;;;10.95;;
68976;SDS011;56029;52.568;13.588;2023-06-24T04:54:50;17.57;;;10.33;;
68976;SDS011;56029;52.568;13.588;2023-06-24T04:57:23;17.17;;;10.30;;
68976;SDS011;56029;52.568;13.588;2023-06-24T04:59:51;16.60;;;10.77;;
68976;SDS011;56029;52.568;13.588;2023-06-24T05:02:17;17.35;;;10.07;;
68976;SDS011;56029;52.568;13.588;2023-06-24T05:04:42;16.73;;;10.07;;
68976;SDS011;56029;52.568;13.588;2023-06-24T05:07:08;16.27;;;9.55;;
68976;SDS011;56029;52.568;13.588;2023-06-24T05:09:33;16.07;;;9.63;;
68976;SDS011;56029;52.568;13.588;2023-06-24T05:12:05;14.90;;;9.88;;
68976;SDS011;56029;52.568;13.588;2023-06-24T05:14:33;15.23;;;10.13;;
68976;SDS011;56029;52.568;13.588;2023-06-24T05:17:00;14.05;;;9.27;;
68976;SDS011;56029;52.568;13.588;2023-06-24T05:19:25;15.57;;;9.63;;
68976;SDS011;56029;52.568;13.588;2023-06-24T05:21:51;18.65;;;9.77;;
68976;SDS011;56029;52.568;13.588;2023-06-24T05:24:16;15.60;;;9.97;;
68976;SDS011;56029;52.568;13.588;2023-06-24T05:26:42;15.30;;;8.65;;
68976;SDS011;56029;52.568;13.588;2023-06-24T05:29:07;16.13;;;9.67;;
68976;SDS011;56029;52.568;13.588;2023-06-24T05:31:33;17.80;;;9.52;;
68976;SDS011;56029;52.568;13.588;2023-06-24T05:33:58;16.00;;;9.47;;
68976;SDS011;56029;52.568;13.588;2023-06-24T05:36:24;17.73;;;9.90;;
68976;SDS011;56029;52.568;13.588;2023-06-24T05:38:49;19.73;;;10.90;;
68976;SDS011;56029;52.568;13.588;2023-06-24T05:41:15;18.02;;;10.40;;
68976;SDS011;56029;52.568;13.588;2023-06-24T05:43:42;17.67;;;10.00;;
68976;SDS011;56029;52.568;13.588;2023-06-24T05:46:09;18.33;;;10.45;;
68976;SDS011;56029;52.568;13.588;2023-06-24T05:48:34;18.20;;;10.07;;
68976;SDS011;56029;52.568;13.588;2023-06-24T05:51:00;21.70;;;9.77;;
68976;SDS011;56029;52.568;13.588;2023-06-24T05:53:25;19.80;;;10.07;;
68976;SDS011;56029;52.568;13.588;2023-06-24T05:55:51;19.20;;;10.70;;
68976;SDS011;56029;52.568;13.588;2023-06-24T05:58:16;17.30;;;10.13;;
68976;SDS011;56029;52.568;13.588;2023-06-24T06:00:42;16.67;;;9.73;;
68976;SDS011;56029;52.568;13.588;2023-06-24T06:03:07;16.30;;;9.80;;
68976;SDS011;56029;52.568;13.588;2023-06-24T06:05:34;18.90;;;10.47;;
68976;SDS011;56029;52.568;13.588;2023-06-24T06:08:00;16.77;;;9.15;;
68976;SDS011;56029;52.568;13.588;2023-06-24T06:10:25;15.70;;;9.10;;
68976;SDS011;56029;52.568;13.588;2023-06-24T06:12:51;16.37;;;9.57;;
68976;SDS011;56029;52.568;13.588;2023-06-24T06:15:18;17.83;;;9.45;;
68976;SDS011;56029;52.568;13.588;2023-06-24T06:17:45;15.10;;;9.30;;
68976;SDS011;56029;52.568;13.588;2023-06-24T06:20:11;16.67;;;9.52;;
68976;SDS011;56029;52.568;13.588;2023-06-24T06:22:36;16.47;;;9.13;;
68976;SDS011;56029;52.568;13.588;2023-06-24T06:25:06;14.48;;;8.13;;
68976;SDS011;56029;52.568;13.588;2023-06-24T06:27:32;16.05;;;8.73;;
68976;SDS011;56029;52.568;13.588;2023-06-24T06:29:58;14.10;;;8.57;;
68976;SDS011;56029;52.568;13.588;2023-06-24T06:32:24;14.97;;;8.97;;
68976;SDS011;56029;52.568;13.588;2023-06-24T06:34:49;14.13;;;8.83;;
68976;SDS011;56029;52.568;13.588;2023-06-24T06:37:15;14.57;;;8.77;;
68976;SDS011;56029;52.568;13.588;2023-06-24T06:39:41;15.20;;;8.70;;
68976;SDS011;56029;52.568;13.588;2023-06-24T06:42:06;13.40;;;8.67;;
68976;SDS011;56029;52.568;13.588;2023-06-24T06:44:32;14.30;;;8.65;;
68976;SDS011;56029;52.568;13.588;2023-06-24T06:46:57;18.17;;;8.50;;
68976;SDS011;56029;52.568;13.588;2023-06-24T06:49:23;15.13;;;9.23;;
68976;SDS011;56029;52.568;13.588;2023-06-24T06:51:48;13.37;;;8.93;;
68976;SDS011;56029;52.568;13.588;2023-06-24T06:54:14;12.90;;;8.45;;
68976;SDS011;56029;52.568;13.588;2023-06-24T06:56:39;13.90;;;8.50;;
68976;SDS011;56029;52.568;13.588;2023-06-24T06:59:05;15.10;;;8.17;;
68976;SDS011;56029;52.568;13.588;2023-06-24T07:01:30;14.80;;;9.20;;
68976;SDS011;56029;52.568;13.588;2023-06-24T07:03:56;18.37;;;9.33;;
68976;SDS011;56029;52.568;13.588;2023-06-24T07:06:22;13.20;;;8.40;;
68976;SDS011;56029;52.568;13.588;2023-06-24T07:08:48;14.15;;;8.00;;
68976;SDS011;56029;52.568;13.588;2023-06-24T07:11:13;12.93;;;7.60;;
68976;SDS011;56029;52.568;13.588;2023-06-24T07:13:39;14.05;;;7.68;;
68976;SDS011;56029;52.568;13.588;2023-06-24T07:16:04;12.10;;;7.70;;
68976;SDS011;56029;52.568;13.588;2023-06-24T07:18:30;12.82;;;7.53;;
68976;SDS011;56029;52.568;13.588;2023-06-24T07:20:56;13.47;;;7.70;;
68976;SDS011;56029;52.568;13.588;2023-06-24T07:23:21;12.48;;;7.57;;
68976;SDS011;56029;52.568;13.588;2023-06-24T07:25:47;13.43;;;7.67;;
68976;SDS011;56029;52.568;13.588;2023-06-24T07:28:13;11.43;;;7.43;;
68976;SDS011;56029;52.568;13.588;2023-06-24T07:30:39;13.33;;;8.13;;
68976;SDS011;56029;52.568;13.588;2023-06-24T07:33:05;15.00;;;8.52;;
68976;SDS011;56029;52.568;13.588;2023-06-24T07:35:31;13.03;;;7.47;;
68976;SDS011;56029;52.568;13.588;2023-06-24T07:38:00;11.55;;;7.45;;
68976;SDS011;56029;52.568;13.588;2023-06-24T07:40:26;12.90;;;6.83;;
68976;SDS011;56029;52.568;13.588;2023-06-24T07:42:52;11.60;;;7.10;;
68976;SDS011;56029;52.568;13.588;2023-06-24T07:45:18;12.35;;;6.25;;
68976;SDS011;56029;52.568;13.588;2023-06-24T07:47:44;10.47;;;6.70;;
68976;SDS011;56029;52.568;13.588;2023-06-24T07:50:09;11.80;;;6.83;;
68976;SDS011;56029;52.568;13.588;2023-06-24T07:52:36;11.07;;;6.45;;
68976;SDS011;56029;52.568;13.588;2023-06-24T07:55:02;9.75;;;6.20;;
68976;SDS011;56029;52.568;13.588;2023-06-24T07:57:29;10.98;;;6.50;;
68976;SDS011;56029;52.568;13.588;2023-06-24T07:59:55;14.20;;;6.70;;
68976;SDS011;56029;52.568;13.588;2023-06-24T08:02:21;12.05;;;6.60;;
68976;SDS011;56029;52.568;13.588;2023-06-24T08:04:46;11.47;;;6.20;;
68976;SDS011;56029;52.568;13.588;2023-06-24T08:07:12;11.13;;;6.30;;
68976;SDS011;56029;52.568;13.588;2023-06-24T08:09:37;8.50;;;5.27;;
68976;SDS011;56029;52.568;13.588;2023-06-24T08:12:03;9.90;;;4.68;;
68976;SDS011;56029;52.568;13.588;2023-06-24T08:14:29;8.63;;;5.50;;
68976;SDS011;56029;52.568;13.588;2023-06-24T08:16:55;11.23;;;5.50;;
68976;SDS011;56029;52.568;13.588;2023-06-24T08:19:20;11.30;;;5.60;;
68976;SDS011;56029;52.568;13.588;2023-06-24T08:21:46;10.90;;;5.50;;
68976;SDS011;56029;52.568;13.588;2023-06-24T08:24:11;9.80;;;5.33;;
68976;SDS011;56029;52.568;13.588;2023-06-24T08:26:37;10.20;;;6.03;;
68976;SDS011;56029;52.568;13.588;2023-06-24T08:29:02;9.17;;;5.63;;
68976;SDS011;56029;52.568;13.588;2023-06-24T08:31:28;10.77;;;5.50;;
68976;SDS011;56029;52.568;13.588;2023-06-24T08:33:54;9.90;;;5.70;;
68976;SDS011;56029;52.568;13.588;2023-06-24T08:36:23;10.17;;;5.47;;
68976;SDS011;56029;52.568;13.588;2023-06-24T08:38:49;8.30;;;5.40;;
68976;SDS011;56029;52.568;13.588;2023-06-24T08:41:14;8.55;;;5.45;;
68976;SDS011;56029;52.568;13.588;2023-06-24T08:43:40;9.70;;;5.33;;
68976;SDS011;56029;52.568;13.588;2023-06-24T08:46:06;10.03;;;5.87;;
68976;SDS011;56029;52.568;13.588;2023-06-24T08:48:31;9.97;;;6.03;;
68976;SDS011;56029;52.568;13.588;2023-06-24T08:50:58;8.90;;;5.05;;
68976;SDS011;56029;52.568;13.588;2023-06-24T08:53:26;10.73;;;5.40;;
68976;SDS011;56029;52.568;13.588;2023-06-24T08:55:53;9.03;;;5.53;;
68976;SDS011;56029;52.568;13.588;2023-06-24T08:58:19;9.40;;;5.75;;
68976;SDS011;56029;52.568;13.588;2023-06-24T09:00:45;9.13;;;5.60;;
68976;SDS011;56029;52.568;13.588;2023-06-24T09:03:11;9.90;;;5.60;;
68976;SDS011;56029;52.568;13.588;2023-06-24T09:05:37;9.77;;;5.37;;
68976;SDS011;56029;52.568;13.588;2023-06-24T09:08:02;8.43;;;4.68;;
68976;SDS011;56029;52.568;13.588;2023-06-24T09:10:29;9.70;;;4.97;;
68976;SDS011;56029;52.568;13.588;2023-06-24T09:12:56;9.30;;;4.55;;
68976;SDS011;56029;52.568;13.588;2023-06-24T09:15:22;10.57;;;4.95;;
68976;SDS011;56029;52.568;13.588;2023-06-24T09:17:47;9.33;;;5.60;;
68976;SDS011;56029;52.568;13.588;2023-06-24T09:20:13;9.57;;;5.40;;
68976;SDS011;56029;52.568;13.588;2023-06-24T09:22:42;8.40;;;5.30;;
68976;SDS011;56029;52.568;13.588;2023-06-24T09:25:08;8.00;;;4.77;;
68976;SDS011;56029;52.568;13.588;2023-06-24T09:27:33;8.77;;;5.22;;
68976;SDS011;56029;52.568;13.588;2023-06-24T09:29:59;9.87;;;5.43;;
68976;SDS011;56029;52.568;13.588;2023-06-24T09:32:30;9.17;;;5.27;;
68976;SDS011;56029;52.568;13.588;2023-06-24T09:34:57;9.47;;;5.37;;
68976;SDS011;56029;52.568;13.588;2023-06-24T09:37:22;8.77;;;5.65;;
68976;SDS011;56029;52.568;13.588;2023-06-24T09:39:49;7.97;;;5.18;;
68976;SDS011;56029;52.568;13.588;2023-06-24T09:42:14;8.57;;;4.77;;
68976;SDS011;56029;52.568;13.588;2023-06-24T09:44:40;8.20;;;4.80;;
68976;SDS011;56029;52.568;13.588;2023-06-24T09:47:05;10.60;;;4.80;;
68976;SDS011;56029;52.568;13.588;2023-06-24T09:49:31;9.03;;;5.60;;
68976;SDS011;56029;52.568;13.588;2023-06-24T09:51:58;8.18;;;4.88;;
68976;SDS011;56029;52.568;13.588;2023-06-24T09:54:28;11.33;;;5.33;;
68976;SDS011;56029;52.568;13.588;2023-06-24T09:56:54;7.97;;;4.18;;
68976;SDS011;56029;52.568;13.588;2023-06-24T09:59:23;8.27;;;4.80;;
68976;SDS011;56029;52.568;13.588;2023-06-24T10:01:51;9.85;;;5.28;;
68976;SDS011;56029;52.568;13.588;2023-06-24T10:04:19;8.95;;;4.95;;
68976;SDS011;56029;52.568;13.588;2023-06-24T10:06:47;8.97;;;4.80;;
68976;SDS011;56029;52.568;13.588;2023-06-24T10:09:13;9.07;;;4.60;;
68976;SDS011;56029;52.568;13.588;2023-06-24T10:11:42;9.43;;;5.40;;
68976;SDS011;56029;52.568;13.588;2023-06-24T10:14:08;7.53;;;4.68;;
68976;SDS011;56029;52.568;13.588;2023-06-24T10:16:34;8.83;;;4.87;;
68976;SDS011;56029;52.568;13.588;2023-06-24T10:19:01;7.32;;;4.50;;
68976;SDS011;56029;52.568;13.588;2023-06-24T10:24:28;9.27;;;4.50;;
68976;SDS011;56029;52.568;13.588;2023-06-24T10:26:55;7.20;;;4.27;;
68976;SDS011;56029;52.568;13.588;2023-06-24T10:29:30;6.80;;;4.30;;
68976;SDS011;56029;52.568;13.588;2023-06-24T10:31:56;7.65;;;4.72;;
68976;SDS011;56029;52.568;13.588;2023-06-24T10:35:00;9.27;;;4.78;;
68976;SDS011;56029;52.568;13.588;2023-06-24T10:37:21;8.15;;;4.57;;
68976;SDS011;56029;52.568;13.588;2023-06-24T10:39:53;7.83;;;4.60;;
68976;SDS011;56029;52.568;13.588;2023-06-24T10:44:56;7.10;;;4.68;;
68976;SDS011;56029;52.568;13.588;2023-06-24T10:47:45;7.65;;;4.70;;
68976;SDS011;56029;52.568;13.588;2023-06-24T10:50:13;7.63;;;4.40;;
68976;SDS011;56029;52.568;13.588;2023-06-24T10:52:43;8.50;;;4.77;;
68976;SDS011;56029;52.568;13.588;2023-06-24T10:55:13;8.18;;;4.80;;
68976;SDS011;56029;52.568;13.588;2023-06-24T10:57:40;8.45;;;4.28;;
68976;SDS011;56029;52.568;13.588;2023-06-24T11:00:06;7.03;;;4.40;;
68976;SDS011;56029;52.568;13.588;2023-06-24T11:02:32;6.90;;;4.40;;
68976;SDS011;56029;52.568;13.588;2023-06-24T11:04:59;7.45;;;4.50;;
68976;SDS011;56029;52.568;13.588;2023-06-24T11:07:29;8.13;;;4.22;;
68976;SDS011;56029;52.568;13.588;2023-06-24T11:10:14;7.88;;;4.90;;
68976;SDS011;56029;52.568;13.588;2023-06-24T11:12:40;6.53;;;3.93;;
68976;SDS011;56029;52.568;13.588;2023-06-24T11:15:07;8.07;;;4.30;;
68976;SDS011;56029;52.568;13.588;2023-06-24T11:17:37;6.93;;;4.30;;
68976;SDS011;56029;52.568;13.588;2023-06-24T11:20:07;7.28;;;4.30;;
68976;SDS011;56029;52.568;13.588;2023-06-24T11:22:34;8.45;;;4.15;;
68976;SDS011;56029;52.568;13.588;2023-06-24T11:24:59;6.77;;;4.50;;
68976;SDS011;56029;52.568;13.588;2023-06-24T11:27:28;6.20;;;4.10;;
68976;SDS011;56029;52.568;13.588;2023-06-24T11:29:55;6.43;;;4.05;;
68976;SDS011;56029;52.568;13.588;2023-06-24T11:32:40;9.38;;;4.03;;
68976;SDS011;56029;52.568;13.588;2023-06-24T11:35:07;9.63;;;3.95;;
68976;SDS011;56029;52.568;13.588;2023-06-24T11:37:34;7.47;;;4.37;;
68976;SDS011;56029;52.568;13.588;2023-06-24T11:40:04;7.45;;;4.45;;
68976;SDS011;56029;52.568;13.588;2023-06-24T11:42:40;7.35;;;4.40;;
68976;SDS011;56029;52.568;13.588;2023-06-24T11:45:10;6.35;;;3.70;;
68976;SDS011;56029;52.568;13.588;2023-06-24T11:47:37;8.50;;;4.22;;
68976;SDS011;56029;52.568;13.588;2023-06-24T11:50:07;8.57;;;4.27;;
68976;SDS011;56029;52.568;13.588;2023-06-24T11:55:17;7.88;;;4.60;;
68976;SDS011;56029;52.568;13.588;2023-06-24T11:57:47;9.32;;;4.45;;
68976;SDS011;56029;52.568;13.588;2023-06-24T12:00:27;11.63;;;6.75;;
68976;SDS011;56029;52.568;13.588;2023-06-24T12:02:57;9.03;;;4.77;;
68976;SDS011;56029;52.568;13.588;2023-06-24T12:05:33;6.80;;;3.90;;
68976;SDS011;56029;52.568;13.588;2023-06-24T12:08:07;5.85;;;4.00;;
68976;SDS011;56029;52.568;13.588;2023-06-24T12:10:36;7.90;;;4.25;;
68976;SDS011;56029;52.568;13.588;2023-06-24T12:13:03;7.65;;;4.43;;
68976;SDS011;56029;52.568;13.588;2023-06-24T12:15:31;6.60;;;4.10;;
68976;SDS011;56029;52.568;13.588;2023-06-24T12:17:57;8.05;;;4.65;;
68976;SDS011;56029;52.568;13.588;2023-06-24T12:20:24;8.80;;;4.57;;
68976;SDS011;56029;52.568;13.588;2023-06-24T12:22:50;7.25;;;4.50;;
68976;SDS011;56029;52.568;13.588;2023-06-24T12:25:16;8.50;;;4.80;;
68976;SDS011;56029;52.568;13.588;2023-06-24T12:27:42;7.05;;;4.53;;
68976;SDS011;56029;52.568;13.588;2023-06-24T12:30:09;7.00;;;4.38;;
68976;SDS011;56029;52.568;13.588;2023-06-24T12:32:36;7.32;;;4.50;;
68976;SDS011;56029;52.568;13.588;2023-06-24T12:35:02;7.50;;;4.13;;
68976;SDS011;56029;52.568;13.588;2023-06-24T12:37:31;6.80;;;4.60;;
68976;SDS011;56029;52.568;13.588;2023-06-24T12:39:58;7.10;;;3.97;;
68976;SDS011;56029;52.568;13.588;2023-06-24T12:42:25;9.30;;;4.97;;
68976;SDS011;56029;52.568;13.588;2023-06-24T12:44:51;7.90;;;4.30;;
68976;SDS011;56029;52.568;13.588;2023-06-24T12:47:16;7.83;;;4.70;;
68976;SDS011;56029;52.568;13.588;2023-06-24T12:49:43;9.88;;;4.43;;
68976;SDS011;56029;52.568;13.588;2023-06-24T12:52:09;8.47;;;4.60;;
68976;SDS011;56029;52.568;13.588;2023-06-24T12:54:35;9.48;;;4.70;;
68976;SDS011;56029;52.568;13.588;2023-06-24T12:57:03;7.90;;;4.63;;
68976;SDS011;56029;52.568;13.588;2023-06-24T12:59:29;7.38;;;4.35;;
68976;SDS011;56029;52.568;13.588;2023-06-24T13:01:55;7.30;;;4.23;;
68976;SDS011;56029;52.568;13.588;2023-06-24T13:04:21;7.57;;;4.70;;
68976;SDS011;56029;52.568;13.588;2023-06-24T13:06:48;7.25;;;4.78;;
68976;SDS011;56029;52.568;13.588;2023-06-24T13:09:14;7.20;;;4.30;;
68976;SDS011;56029;52.568;13.588;2023-06-24T13:11:40;7.77;;;4.30;;
68976;SDS011;56029;52.568;13.588;2023-06-24T13:14:06;7.18;;;4.75;;
68976;SDS011;56029;52.568;13.588;2023-06-24T13:16:32;9.13;;;4.93;;
68976;SDS011;56029;52.568;13.588;2023-06-24T13:18:58;7.75;;;4.55;;
68976;SDS011;56029;52.568;13.588;2023-06-24T13:21:24;8.07;;;5.17;;
68976;SDS011;56029;52.568;13.588;2023-06-24T13:23:49;8.50;;;5.10;;
68976;SDS011;56029;52.568;13.588;2023-06-24T13:26:15;7.57;;;4.50;;
68976;SDS011;56029;52.568;13.588;2023-06-24T13:28:40;8.00;;;4.78;;
68976;SDS011;56029;52.568;13.588;2023-06-24T13:31:06;7.97;;;4.80;;
68976;SDS011;56029;52.568;13.588;2023-06-24T13:33:31;7.53;;;4.70;;
68976;SDS011;56029;52.568;13.588;2023-06-24T13:35:57;8.50;;;4.73;;
68976;SDS011;56029;52.568;13.588;2023-06-24T13:38:22;7.60;;;4.70;;
68976;SDS011;56029;52.568;13.588;2023-06-24T13:40:48;8.97;;;4.93;;
68976;SDS011;56029;52.568;13.588;2023-06-24T13:43:13;8.38;;;4.85;;
68976;SDS011;56029;52.568;13.588;2023-06-24T13:45:39;7.83;;;4.50;;
68976;SDS011;56029;52.568;13.588;2023-06-24T13:48:04;9.68;;;4.90;;
68976;SDS011;56029;52.568;13.588;2023-06-24T13:50:30;7.87;;;4.80;;
68976;SDS011;56029;52.568;13.588;2023-06-24T13:52:56;7.83;;;4.80;;
68976;SDS011;56029;52.568;13.588;2023-06-24T13:55:21;10.73;;;4.70;;
68976;SDS011;56029;52.568;13.588;2023-06-24T13:57:47;6.90;;;4.77;;
68976;SDS011;56029;52.568;13.588;2023-06-24T14:00:12;7.78;;;4.50;;
68976;SDS011;56029;52.568;13.588;2023-06-24T14:02:39;7.87;;;4.80;;
68976;SDS011;56029;52.568;13.588;2023-06-24T14:05:05;8.32;;;5.00;;
68976;SDS011;56029;52.568;13.588;2023-06-24T14:07:31;7.38;;;4.72;;
68976;SDS011;56029;52.568;13.588;2023-06-24T14:09:56;8.20;;;5.47;;
68976;SDS011;56029;52.568;13.588;2023-06-24T14:12:22;8.25;;;5.00;;
68976;SDS011;56029;52.568;13.588;2023-06-24T14:14:47;7.50;;;4.63;;
68976;SDS011;56029;52.568;13.588;2023-06-24T14:17:13;8.60;;;4.80;;
68976;SDS011;56029;52.568;13.588;2023-06-24T14:19:39;10.15;;;4.82;;
68976;SDS011;56029;52.568;13.588;2023-06-24T14:22:05;7.50;;;4.60;;
68976;SDS011;56029;52.568;13.588;2023-06-24T14:24:32;6.72;;;4.10;;
68976;SDS011;56029;52.568;13.588;2023-06-24T14:26:58;8.82;;;4.40;;
68976;SDS011;56029;52.568;13.588;2023-06-24T14:29:23;6.67;;;4.30;;
68976;SDS011;56029;52.568;13.588;2023-06-24T14:31:49;6.97;;;4.30;;
68976;SDS011;56029;52.568;13.588;2023-06-24T14:34:15;8.10;;;4.60;;
68976;SDS011;56029;52.568;13.588;2023-06-24T14:36:40;8.00;;;5.00;;
68976;SDS011;56029;52.568;13.588;2023-06-24T14:39:06;7.97;;;4.80;;
68976;SDS011;56029;52.568;13.588;2023-06-24T14:41:31;7.38;;;4.70;;
68976;SDS011;56029;52.568;13.588;2023-06-24T14:43:57;7.17;;;4.37;;